Time;durP1;ratioP1;P1;durP2;ratioP2;P2;SDS_P1;SDS_P2;PMS_P1;PMS_P2;Temp;Humidity;BMP_temperature;BMP_pressure;BME280_temperature;BME280_humidity;BME280_pressure;Samples;Min_cycle;Max_cycle;Signal;HPM_P1;HPM_P2
2022/05/26 00:01:21;;;;;;;6.13;3.50;;;;;;;14.42;100.00;100396.91;5072819;28;20389;-73
2022/05/26 00:03:50;;;;;;;5.65;3.78;;;;;;;14.36;100.00;100417.97;5072360;28;20049;-73
2022/05/26 00:06:21;;;;;;;5.90;3.80;;;;;;;14.32;100.00;100418.19;5073632;28;20119;-73
2022/05/26 00:08:51;;;;;;;6.80;4.38;;;;;;;14.24;100.00;100425.09;5072380;28;20132;-73
2022/05/26 00:11:22;;;;;;;5.63;4.22;;;;;;;14.20;100.00;100421.78;5072175;28;20053;-73
2022/05/26 00:13:51;;;;;;;5.47;3.70;;;;;;;14.13;100.00;100441.97;5073611;28;20051;-72
2022/05/26 00:16:19;;;;;;;6.50;4.35;;;;;;;14.11;100.00;100425.13;5073223;28;20079;-73
2022/05/26 00:18:48;;;;;;;7.95;4.28;;;;;;;14.07;100.00;100439.72;5073486;28;20106;-71
2022/05/26 00:21:17;;;;;;;6.18;4.10;;;;;;;14.02;100.00;100436.53;5073493;28;20374;-71
2022/05/26 00:23:46;;;;;;;6.10;4.22;;;;;;;13.95;100.00;100440.59;5073222;28;20477;-71
2022/05/26 00:26:14;;;;;;;5.72;4.05;;;;;;;13.90;100.00;100443.63;5073096;28;20496;-71
2022/05/26 00:28:42;;;;;;;6.45;4.45;;;;;;;13.86;100.00;100439.44;5073163;28;20043;-71
2022/05/26 00:31:11;;;;;;;5.20;3.90;;;;;;;13.79;100.00;100439.97;5072963;28;20044;-71
2022/05/26 00:33:40;;;;;;;8.20;4.32;;;;;;;13.75;100.00;100444.69;5072808;28;20041;-70
2022/05/26 00:36:11;;;;;;;8.93;4.57;;;;;;;13.74;100.00;100446.50;5073341;28;20051;-70
2022/05/26 00:38:40;;;;;;;5.85;4.35;;;;;;;13.72;100.00;100452.97;5072747;28;20044;-73
2022/05/26 00:41:14;;;;;;;5.72;4.50;;;;;;;13.68;100.00;100454.97;5073199;28;20102;-73
2022/05/26 00:43:44;;;;;;;6.65;4.60;;;;;;;13.72;100.00;100459.19;5073073;28;20094;-73
2022/05/26 00:46:22;;;;;;;6.40;3.70;;;;;;;13.64;100.00;100463.34;5073511;28;20044;-74
2022/05/26 00:48:53;;;;;;;6.18;4.22;;;;;;;13.73;100.00;100468.94;5073275;28;20116;-71
2022/05/26 00:51:27;;;;;;;5.63;4.38;;;;;;;13.72;100.00;100467.22;5073161;28;20120;-71
2022/05/26 00:53:56;;;;;;;;;;;;;;;13.74;100.00;100477.84;5073502;28;20517;-72
2022/05/26 00:56:32;;;;;;;6.25;4.47;;;;;;;13.85;100.00;100469.03;5073060;28;20003;-71
2022/05/26 00:59:08;;;;;;;6.65;4.30;;;;;;;13.77;100.00;100474.06;5072054;28;20075;-71
2022/05/26 01:01:38;;;;;;;7.57;4.47;;;;;;;13.81;100.00;100481.81;5072490;28;20052;-71
2022/05/26 01:04:10;;;;;;;7.22;4.60;;;;;;;13.83;100.00;100487.06;5072969;28;20078;-72
2022/05/26 01:06:45;;;;;;;6.95;4.22;;;;;;;13.77;100.00;100479.44;5071533;28;20106;-73
2022/05/26 01:09:14;;;;;;;6.13;4.22;;;;;;;13.75;100.00;100480.41;5073429;28;20044;-72
2022/05/26 01:11:45;;;;;;;6.85;4.60;;;;;;;13.73;100.00;100478.78;5070976;28;20131;-72
2022/05/26 01:14:18;;;;;;;6.28;4.30;;;;;;;13.66;100.00;100482.88;5073190;28;20043;-72
2022/05/26 01:17:01;;;;;;;8.48;4.25;;;;;;;13.58;100.00;100480.69;5072265;28;20463;-72
2022/05/26 01:19:53;;;;;;;;;;;;;;;13.58;100.00;100475.34;5073149;28;20045;-73
2022/05/26 01:22:31;;;;;;;7.18;4.47;;;;;;;13.57;100.00;100489.72;5034433;28;20031;-72
2022/05/26 01:25:21;;;;;;;6.35;4.53;;;;;;;13.43;100.00;100488.00;5071723;28;20045;-72
2022/05/26 01:28:00;;;;;;;8.00;4.22;;;;;;;13.54;100.00;100484.56;5073084;28;20040;-72
2022/05/26 01:30:40;;;;;;;6.13;4.25;;;;;;;13.49;100.00;100481.34;5076367;28;20051;-72
2022/05/26 01:33:23;;;;;;;6.80;4.70;;;;;;;13.42;100.00;100483.59;5076304;28;20485;-71
2022/05/26 01:36:04;;;;;;;7.35;4.82;;;;;;;13.45;100.00;100479.84;5075272;28;20415;-71
2022/05/26 01:38:39;;;;;;;6.25;4.40;;;;;;;13.40;100.00;100484.63;5074865;28;20049;-74
2022/05/26 01:41:18;;;;;;;7.05;4.07;;;;;;;13.34;100.00;100477.03;5076155;28;20044;-71
2022/05/26 01:43:54;;;;;;;6.15;4.03;;;;;;;13.26;100.00;100480.22;5076203;28;20037;-71
2022/05/26 01:46:29;;;;;;;6.22;4.60;;;;;;;13.26;100.00;100479.38;5076403;28;20041;-71
2022/05/26 01:49:10;;;;;;;6.30;4.20;;;;;;;13.23;100.00;100476.91;5075069;28;20053;-71
2022/05/26 01:51:42;;;;;;;5.63;3.97;;;;;;;13.20;100.00;100490.50;5075920;28;20075;-71
2022/05/26 01:54:18;;;;;;;7.13;4.23;;;;;;;13.28;100.00;100488.16;5076277;28;20048;-70
2022/05/26 01:56:53;;;;;;;5.85;4.30;;;;;;;13.27;100.00;100487.31;5076008;28;20051;-70
2022/05/26 01:59:27;;;;;;;6.43;4.07;;;;;;;13.35;100.00;100494.84;5076222;28;20045;-73
2022/05/26 02:02:01;;;;;;;5.53;3.60;;;;;;;13.39;100.00;100497.19;5076141;28;20405;-73
2022/05/26 02:04:36;;;;;;;5.45;3.83;;;;;;;13.45;100.00;100498.59;5075889;28;20045;-73
2022/05/26 02:07:10;;;;;;;7.65;3.72;;;;;;;13.41;100.00;100499.75;5075101;28;20052;-73
2022/05/26 02:09:42;;;;;;;6.22;3.67;;;;;;;13.46;100.00;100503.84;5075816;28;20052;-71
2022/05/26 02:12:15;;;;;;;5.20;3.83;;;;;;;13.55;100.00;100512.22;5074672;28;20056;-71
2022/05/26 02:14:48;;;;;;;7.57;3.90;;;;;;;13.50;100.00;100514.34;5074313;28;20049;-73
2022/05/26 02:17:20;;;;;;;5.45;3.50;;;;;;;13.47;100.00;100515.44;5075828;28;20062;-73
2022/05/26 02:19:53;;;;;;;5.70;3.70;;;;;;;13.41;100.00;100515.81;5074232;28;20055;-73
2022/05/26 02:22:26;;;;;;;5.68;3.60;;;;;;;13.40;100.00;100519.47;5074559;28;20052;-72
2022/05/26 02:24:56;;;;;;;;;;;;;;;13.36;100.00;100518.84;5074859;28;20049;-71
2022/05/26 02:27:26;;;;;;;4.95;2.97;;;;;;;13.43;100.00;100522.81;5074329;28;19926;-71
2022/05/26 02:29:55;;;;;;;5.88;3.53;;;;;;;13.45;100.00;100530.75;5075292;28;20546;-71
2022/05/26 02:32:27;;;;;;;5.07;3.30;;;;;;;13.47;100.00;100528.81;5075114;28;20040;-71
2022/05/26 02:35:00;;;;;;;5.60;3.65;;;;;;;13.38;100.00;100532.97;5075546;28;20036;-72
2022/05/26 02:37:30;;;;;;;;;;;;;;;13.33;100.00;100537.81;5075880;28;20124;-70
2022/05/26 02:39:58;;;;;;;7.60;3.60;;;;;;;13.36;100.00;100528.69;5073475;28;19920;-72
2022/05/26 02:42:28;;;;;;;4.70;3.30;;;;;;;13.31;100.00;100529.00;5074949;28;20047;-72
2022/05/26 02:44:57;;;;;;;6.15;3.38;;;;;;;13.34;100.00;100533.31;5075531;28;20102;-72
2022/05/26 02:47:38;;;;;;;5.68;3.80;;;;;;;13.34;100.00;100539.50;5073830;28;20052;-71
2022/05/26 02:50:22;;;;;;;5.30;3.47;;;;;;;13.25;100.00;100536.59;5074898;28;20048;-73
2022/05/26 02:53:02;;;;;;;4.85;3.40;;;;;;;13.30;100.00;100540.66;5074538;28;20044;-73
2022/05/26 02:55:42;;;;;;;5.90;3.63;;;;;;;13.22;100.00;100536.78;5075241;28;20508;-73
2022/05/26 02:58:14;;;;;;;5.22;3.70;;;;;;;13.30;100.00;100531.78;5075076;28;20398;-72
2022/05/26 03:00:51;;;;;;;5.95;4.15;;;;;;;13.21;100.00;100529.72;5074756;28;20449;-73
2022/05/26 03:03:26;;;;;;;6.85;3.83;;;;;;;13.20;100.00;100536.03;5074977;28;20123;-73
2022/05/26 03:06:02;;;;;;;7.97;4.43;;;;;;;13.21;100.00;100535.91;5073586;28;20052;-73
2022/05/26 03:08:36;;;;;;;6.55;4.20;;;;;;;13.21;100.00;100538.59;5074819;28;20074;-70
2022/05/26 03:11:07;;;;;;;7.05;4.45;;;;;;;13.32;100.00;100532.56;5073577;28;20563;-69
2022/05/26 03:13:36;;;;;;;5.75;4.00;;;;;;;13.41;100.00;100535.47;5074353;28;20044;-70
2022/05/26 03:16:07;;;;;;;5.95;3.35;;;;;;;13.52;100.00;100547.28;5074702;28;20041;-70
2022/05/26 03:18:36;;;;;;;5.97;3.55;;;;;;;13.54;100.00;100554.25;5074343;28;20048;-71
2022/05/26 03:21:08;;;;;;;7.07;3.60;;;;;;;13.59;100.00;100561.97;5074451;28;20044;-70
2022/05/26 03:23:37;;;;;;;6.47;3.60;;;;;;;13.67;100.00;100570.34;5072974;28;20052;-71
2022/05/26 03:26:07;;;;;;;5.65;4.00;;;;;;;13.61;100.00;100566.28;5074478;28;20546;-69
2022/05/26 03:28:36;;;;;;;9.85;3.92;;;;;;;13.70;100.00;100564.78;5074207;28;20037;-70
2022/05/26 03:31:09;;;;;;;6.57;3.80;;;;;;;13.75;100.00;100576.91;5074001;28;20051;-69
2022/05/26 03:41:56;;;;;;;5.30;3.45;;;;;;;14.72;100.00;100581.75;5072263;28;20075;-70
2022/05/26 03:44:27;;;;;;;5.57;3.72;;;;;;;15.49;100.00;100581.47;5073996;28;20127;-70
2022/05/26 03:46:55;;;;;;;5.35;3.20;;;;;;;15.88;99.25;100583.84;5072481;28;20056;-70
2022/05/26 03:49:23;;;;;;;6.35;3.55;;;;;;;16.49;93.08;100588.94;5073912;28;20047;-70
2022/05/26 03:51:53;;;;;;;5.88;3.60;;;;;;;17.09;88.79;100595.81;5071752;28;20444;-71
2022/05/26 03:54:22;;;;;;;5.35;3.25;;;;;;;17.39;85.19;100595.97;5074049;28;20401;-69
2022/05/26 03:56:50;;;;;;;6.50;3.60;;;;;;;17.77;82.00;100593.78;5073268;28;20044;-70
2022/05/26 03:59:19;;;;;;;6.38;3.30;;;;;;;18.43;77.89;100608.72;5073918;28;20048;-70
2022/05/26 04:01:47;;;;;;;6.22;3.28;;;;;;;18.34;77.12;100608.66;5073237;28;20044;-70
2022/05/26 04:04:16;;;;;;;5.45;3.15;;;;;;;18.60;75.08;100605.34;5073435;28;20044;-71
2022/05/26 04:06:44;;;;;;;5.43;3.35;;;;;;;18.66;74.03;100601.31;5072204;28;20048;-71
2022/05/26 04:09:14;;;;;;;5.25;3.38;;;;;;;19.36;71.07;100603.06;5072265;28;20052;-70
2022/05/26 04:11:42;;;;;;;5.97;3.28;;;;;;;19.68;68.07;100599.28;5073202;28;20052;-70
2022/05/26 04:14:10;;;;;;;4.82;2.90;;;;;;;19.66;67.99;100603.97;5073499;28;20482;-70
2022/05/26 04:16:38;;;;;;;6.30;3.00;;;;;;;19.98;66.02;100599.13;5072972;28;20087;-71
2022/05/26 04:19:06;;;;;;;6.38;3.00;;;;;;;20.68;63.13;100601.56;5073205;28;20064;-71
2022/05/26 04:21:35;;;;;;;5.97;3.25;;;;;;;20.65;62.96;100601.81;5073399;28;20045;-72
2022/05/26 04:24:03;;;;;;;5.82;2.85;;;;;;;21.06;60.50;100597.81;5073525;28;20041;-73
2022/05/26 04:26:33;;;;;;;6.85;2.72;;;;;;;21.19;59.75;100600.13;5072055;28;20436;-71
2022/05/26 04:29:13;;;;;;;6.50;2.63;;;;;;;21.36;58.36;100615.63;5073080;28;20374;-71
2022/05/26 04:31:43;;;;;;;3.92;2.50;;;;;;;21.32;57.77;100616.94;5073083;28;20040;-72
2022/05/26 04:34:11;;;;;;;4.55;2.38;;;;;;;21.53;58.12;100625.66;5072977;28;20041;-71
2022/05/26 04:36:39;;;;;;;4.60;2.67;;;;;;;21.80;56.13;100623.84;5071701;28;20044;-76
2022/05/26 04:39:07;;;;;;;7.20;2.90;;;;;;;21.94;55.49;100626.03;5071927;28;20080;-72
2022/05/26 04:41:36;;;;;;;3.70;2.50;;;;;;;22.70;52.46;100620.84;5071914;28;20073;-71
2022/05/26 04:44:06;;;;;;;7.43;2.60;;;;;;;22.69;52.85;100632.72;5072880;28;20130;-72
2022/05/26 04:46:35;;;;;;;7.32;2.30;;;;;;;22.72;52.14;100635.13;5071736;28;20044;-72
2022/05/26 04:49:03;;;;;;;4.18;2.67;;;;;;;22.66;52.13;100626.75;5071594;28;20083;-71
2022/05/26 04:51:34;;;;;;;4.97;2.60;;;;;;;22.21;53.62;100628.69;5071838;28;20071;-70
2022/05/26 04:54:02;;;;;;;3.97;2.20;;;;;;;23.05;50.14;100635.31;5071242;28;20065;-70
2022/05/26 04:56:34;;;;;;;3.33;2.20;;;;;;;22.87;51.29;100639.97;5072743;28;20444;-71
2022/05/26 04:59:05;;;;;;;5.10;2.38;;;;;;;23.36;49.41;100632.88;5071494;28;20055;-72
2022/05/26 05:01:34;;;;;;;5.57;2.25;;;;;;;23.40;48.97;100643.25;5073225;28;20528;-70
2022/05/26 05:04:03;;;;;;;3.22;2.03;;;;;;;23.63;49.77;100646.22;5075466;28;20156;-70
2022/05/26 05:06:31;;;;;;;3.72;2.20;;;;;;;23.94;46.52;100649.19;5076771;28;20056;-70
2022/05/26 05:09:00;;;;;;;3.08;1.90;;;;;;;23.39;48.70;100651.59;5076603;28;20044;-70
2022/05/26 05:11:28;;;;;;;3.28;2.10;;;;;;;23.89;47.51;100651.56;5076649;28;20041;-74
2022/05/26 05:13:57;;;;;;;4.75;1.95;;;;;;;24.16;46.88;100657.72;5075276;28;20434;-73
2022/05/26 05:16:30;;;;;;;3.90;1.90;;;;;;;24.18;45.97;100658.38;5076600;28;20048;-81
2022/05/26 05:18:58;;;;;;;3.17;1.77;;;;;;;24.41;45.69;100661.28;5074659;28;20049;-73
2022/05/26 05:21:33;;;;;;;3.83;2.17;;;;;;;24.14;45.94;100659.75;5078199;28;20048;-74
2022/05/26 05:24:09;;;;;;;3.40;1.90;;;;;;;24.33;45.39;100664.91;5076868;28;20045;-74
2022/05/26 05:26:40;;;;;;;2.65;1.80;;;;;;;24.75;44.13;100669.25;5075943;28;20052;-74
2022/05/26 05:29:14;;;;;;;3.22;1.90;;;;;;;24.33;44.65;100675.81;5076257;28;20059;-74
2022/05/26 05:31:48;;;;;;;3.45;1.90;;;;;;;24.13;45.42;100675.25;5076248;28;20041;-73
2022/05/26 05:34:20;;;;;;;4.68;2.20;;;;;;;23.58;47.17;100681.25;5075704;28;20086;-73
2022/05/26 05:36:48;;;;;;;4.13;1.87;;;;;;;23.67;47.16;100679.44;5074756;28;20060;-74
2022/05/26 05:39:17;;;;;;;5.43;1.75;;;;;;;23.98;46.66;100688.69;5076243;28;20048;-73
2022/05/26 05:41:45;;;;;;;3.95;2.00;;;;;;;24.30;45.86;100689.72;5074838;28;20131;-79
2022/05/26 05:44:13;;;;;;;4.05;2.10;;;;;;;25.05;44.50;100684.88;5076068;28;20050;-74
2022/05/26 05:49:26;;;;;;;5.40;2.13;;;;;;;25.22;43.41;100693.03;5073863;28;20052;-73
2022/05/26 05:51:57;;;;;;;4.25;2.75;;;;;;;24.94;44.25;100690.69;5075585;28;20052;-73
2022/05/26 05:54:28;;;;;;;4.18;2.42;;;;;;;25.17;43.92;100695.41;5074515;28;20060;-74
2022/05/26 05:56:56;;;;;;;4.35;2.10;;;;;;;24.95;44.43;100697.84;5074577;28;20083;-76
2022/05/26 05:59:24;;;;;;;4.68;1.88;;;;;;;24.62;45.77;100698.94;5076018;28;20060;-76
2022/05/26 06:01:54;;;;;;;3.60;1.42;;;;;;;24.67;45.35;100700.13;5075679;28;20041;-76
2022/05/26 06:04:42;;;;;;;4.30;2.10;;;;;;;25.59;42.66;100700.53;5075720;28;20048;-76
2022/05/26 06:07:15;;;;;;;4.32;1.65;;;;;;;25.88;41.73;100699.88;5074347;28;20110;-76
2022/05/26 06:09:44;;;;;;;2.78;1.60;;;;;;;25.51;42.60;100695.97;5075973;28;20037;-75
2022/05/26 06:12:13;;;;;;;7.78;1.80;;;;;;;25.84;41.40;100695.78;5074236;28;20045;-74
2022/05/26 06:14:42;;;;;;;3.40;1.75;;;;;;;25.34;42.70;100697.91;5077396;28;20413;-75
2022/05/26 06:17:13;;;;;;;5.32;1.58;;;;;;;25.30;42.56;100696.56;5072200;28;20060;-74
2022/05/26 06:19:42;;;;;;;2.58;1.50;;;;;;;24.62;44.71;100701.69;5074877;28;20116;-74
2022/05/26 06:22:13;;;;;;;6.15;1.45;;;;;;;25.22;44.31;100701.22;5074425;28;20045;-73
2022/05/26 06:24:42;;;;;;;3.83;1.40;;;;;;;26.25;41.93;100699.97;5072877;28;20359;-73
2022/05/26 06:30:03;;;;;;;3.90;1.50;;;;;;;27.04;39.95;100708.66;5072498;28;20045;-73
2022/05/26 06:38:15;;;;;;;1.77;1.30;;;;;;;27.46;38.07;100715.31;5072693;28;20059;-76
2022/05/26 06:40:43;;;;;;;4.03;1.35;;;;;;;27.84;37.06;100726.16;5074334;28;20068;-74
2022/05/26 06:43:14;;;;;;;2.90;1.50;;;;;;;27.70;37.53;100730.66;5072852;28;20452;-81
2022/05/26 06:45:45;;;;;;;2.97;1.40;;;;;;;27.29;38.05;100733.84;5073686;28;20048;-81
2022/05/26 06:48:16;;;;;;;3.15;1.40;;;;;;;26.55;38.81;100741.09;5073618;28;20037;-81
2022/05/26 06:50:44;;;;;;;2.83;1.45;;;;;;;25.40;41.60;100740.06;5072491;28;20406;-75
2022/05/26 06:53:13;;;;;;;4.38;1.40;;;;;;;25.19;41.92;100737.03;5073683;28;20044;-76
2022/05/26 06:55:41;;;;;;;3.28;1.63;;;;;;;25.56;41.34;100739.97;5074087;28;20056;-76
2022/05/26 06:58:09;;;;;;;5.30;1.33;;;;;;;25.50;41.91;100729.78;5072413;28;20081;-76
2022/05/26 07:00:38;;;;;;;4.50;1.63;;;;;;;25.17;42.98;100733.63;5072406;28;20110;-76
2022/05/26 07:03:06;;;;;;;3.17;1.40;;;;;;;25.27;44.40;100731.56;5072446;28;20048;-77
2022/05/26 07:05:37;;;;;;;3.60;1.40;;;;;;;25.39;43.42;100727.44;5073970;28;20078;-76
2022/05/26 07:08:05;;;;;;;1.90;1.20;;;;;;;25.26;42.13;100729.84;5071837;28;20052;-77
2022/05/26 07:10:34;;;;;;;3.90;1.45;;;;;;;25.10;43.91;100723.44;5073142;28;20055;-75
2022/05/26 07:13:03;;;;;;;5.72;1.42;;;;;;;25.06;43.18;100722.06;5071527;28;20122;-77
2022/05/26 07:15:33;;;;;;;4.25;1.40;;;;;;;25.03;42.69;100719.69;5072704;28;20539;-75
2022/05/26 07:18:04;;;;;;;3.60;1.48;;;;;;;24.87;44.35;100725.16;5071692;28;20056;-77
2022/05/26 07:20:33;;;;;;;3.83;1.35;;;;;;;24.45;44.92;100723.50;5072395;28;20044;-77
2022/05/26 07:23:03;;;;;;;3.42;1.50;;;;;;;24.06;44.53;100727.88;5069864;28;20076;-82
2022/05/26 07:25:31;;;;;;;3.53;1.30;;;;;;;24.08;46.25;100725.81;5068728;28;20048;-81
2022/05/26 07:28:00;;;;;;;4.28;1.30;;;;;;;23.65;48.23;100735.94;5077052;28;20044;-79
2022/05/26 07:30:28;;;;;;;3.65;1.30;;;;;;;23.65;47.47;100735.94;5071782;28;20048;-79
2022/05/26 07:32:56;;;;;;;5.63;1.48;;;;;;;22.99;49.06;100748.34;5074102;28;20052;-76
2022/05/26 07:35:25;;;;;;;3.17;1.50;;;;;;;23.20;48.58;100742.53;5071358;28;20056;-78
2022/05/26 07:43:26;;;;;;;2.80;1.35;;;;;;;22.84;50.01;100756.22;5052093;28;20064;-73
2022/05/26 07:45:55;;;;;;;4.68;1.40;;;;;;;22.81;50.75;100742.94;5050876;28;20095;-73
2022/05/26 07:48:23;;;;;;;3.78;1.40;;;;;;;22.55;50.52;100752.91;5052539;28;20051;-75
2022/05/26 07:50:51;;;;;;;3.95;1.60;;;;;;;22.42;52.34;100750.63;5052924;28;20041;-76
2022/05/26 07:53:19;;;;;;;3.50;1.50;;;;;;;22.83;51.42;100751.78;5051025;28;20049;-81
2022/05/26 07:55:49;;;;;;;2.55;1.30;;;;;;;22.01;51.91;100754.78;5052586;28;20405;-74
2022/05/26 07:58:20;;;;;;;3.95;1.48;;;;;;;22.14;51.86;100754.44;5051017;28;20057;-72
2022/05/26 08:00:48;;;;;;;1.40;1.00;;;;;;;22.14;50.48;100755.28;5052954;28;20478;-81
2022/05/26 08:03:16;;;;;;;2.33;1.05;;;;;;;21.94;51.73;100765.41;5052097;28;20068;-83
2022/05/26 08:05:45;;;;;;;4.10;1.40;;;;;;;22.17;53.13;100760.41;5050964;28;20049;-81
2022/05/26 08:08:14;;;;;;;5.45;1.98;;;;;;;22.60;49.52;100760.63;5052200;28;20494;-76
2022/05/26 08:10:45;;;;;;;1.95;1.20;;;;;;;22.05;50.28;100767.03;5050989;28;20045;-78
2022/05/26 08:13:14;;;;;;;2.53;1.48;;;;;;;21.98;51.38;100755.06;5050619;28;20053;-78
2022/05/26 08:15:43;;;;;;;2.58;1.50;;;;;;;22.19;51.30;100761.09;5070242;28;20068;-80
2022/05/26 08:18:11;;;;;;;3.35;1.30;;;;;;;22.31;50.50;100756.31;5070698;28;20075;-75
2022/05/26 08:20:42;;;;;;;2.05;1.33;;;;;;;22.25;49.61;100768.63;5072563;28;20040;-77
2022/05/26 08:23:12;;;;;;;3.35;1.48;;;;;;;22.57;50.19;100759.06;5071399;28;20048;-79
2022/05/26 08:25:40;;;;;;;3.22;1.48;;;;;;;22.41;49.55;100761.66;5070512;28;20140;-82
2022/05/26 08:28:08;;;;;;;4.82;1.33;;;;;;;22.33;49.19;100764.28;5070445;28;20059;-81
2022/05/26 08:30:44;;;;;;;4.07;1.50;;;;;;;22.24;50.74;100761.50;5050853;28;20061;-81
2022/05/26 08:33:12;;;;;;;4.82;1.35;;;;;;;22.52;49.03;100764.13;5050322;28;20053;-81
2022/05/26 08:35:40;;;;;;;4.13;1.23;;;;;;;22.51;48.45;100767.84;5067137;28;20102;-80
2022/05/26 08:38:09;;;;;;;3.05;1.52;;;;;;;22.22;49.11;100768.94;5051674;28;20045;-80
2022/05/26 08:40:41;;;;;;;2.75;1.42;;;;;;;22.29;49.66;100761.00;5052595;28;20071;-81
2022/05/26 08:43:17;;;;;;;3.58;1.60;;;;;;;22.14;49.70;100766.16;5051621;28;20041;-82
2022/05/26 08:45:50;;;;;;;4.03;1.80;;;;;;;22.48;50.77;100768.16;5069249;28;20425;-81
2022/05/26 08:48:38;;;;;;;6.40;1.60;;;;;;;22.64;48.17;100762.84;5070365;28;20101;-80
2022/05/26 08:51:07;;;;;;;3.55;1.30;;;;;;;22.22;50.01;100762.66;5072016;28;20040;-81
2022/05/26 08:53:40;;;;;;;3.50;1.65;;;;;;;22.35;49.87;100768.56;5071506;28;20371;-80
2022/05/26 08:56:11;;;;;;;5.68;1.70;;;;;;;22.43;49.30;100765.06;5070395;28;20048;-80
2022/05/26 08:58:45;;;;;;;2.63;1.40;;;;;;;22.44;47.38;100772.19;5070427;28;20452;-81
2022/05/26 09:01:24;;;;;;;5.47;1.42;;;;;;;22.37;48.83;100773.81;5070368;28;20444;-80
2022/05/26 09:03:53;;;;;;;2.90;1.40;;;;;;;22.45;48.70;100768.47;5070044;28;20052;-82
2022/05/26 09:06:22;;;;;;;3.13;1.40;;;;;;;22.49;47.75;100767.16;5071269;28;20048;-82
2022/05/26 09:14:31;;;;;;;3.83;1.20;;;;;;;22.26;47.40;100770.34;5069869;28;20080;-82
2022/05/26 09:17:04;;;;;;;;;;;;;;;22.27;47.34;100777.47;5071981;28;20040;-82
2022/05/26 09:19:46;;;;;;;2.47;1.10;;;;;;;22.56;46.77;100774.50;5071294;28;20304;-82
2022/05/26 09:22:27;;;;;;;3.10;1.27;;;;;;;22.70;44.77;100775.81;5071345;28;20051;-82
2022/05/26 09:24:56;;;;;;;2.60;1.08;;;;;;;22.89;44.41;100774.81;5071190;28;20063;-82
2022/05/26 09:27:28;;;;;;;2.72;1.35;;;;;;;22.94;43.76;100779.75;5069939;28;20055;-82
2022/05/26 09:30:17;;;;;;;4.93;1.38;;;;;;;23.18;43.79;100777.22;5072522;28;20051;-81
2022/05/26 09:32:47;;;;;;;2.60;1.30;;;;;;;23.24;42.83;100781.13;5071254;28;20047;-82
2022/05/26 09:35:25;;;;;;;4.10;1.50;;;;;;;23.22;41.51;100775.88;5069761;28;20412;-81
2022/05/26 09:37:56;;;;;;;3.47;1.02;;;;;;;23.20;40.84;100763.44;5071106;28;20068;-81
2022/05/26 09:40:28;;;;;;;3.25;1.27;;;;;;;23.29;40.75;100779.66;5070218;28;20045;-81
2022/05/26 09:43:03;;;;;;;2.22;1.05;;;;;;;23.21;41.18;100771.44;5071291;28;20110;-82
2022/05/26 09:45:42;;;;;;;2.22;0.88;;;;;;;23.35;40.30;100762.66;5070624;28;20047;-81
2022/05/26 09:48:18;;;;;;;3.25;1.10;;;;;;;23.27;39.17;100770.81;5071105;28;20076;-82
2022/05/26 09:50:52;;;;;;;3.08;1.20;;;;;;;23.34;39.46;100765.53;5074963;28;20072;-81
2022/05/26 09:53:30;;;;;;;3.60;1.10;;;;;;;23.07;39.71;100769.31;5073173;28;20053;-81
2022/05/26 09:55:59;;;;;;;4.70;1.15;;;;;;;23.30;39.65;100762.31;5073541;28;20056;-82
2022/05/26 09:58:31;;;;;;;4.00;1.30;;;;;;;23.30;40.14;100759.59;5073280;28;20072;-82
2022/05/26 10:01:06;;;;;;;2.53;1.08;;;;;;;23.37;40.51;100757.94;5073863;28;20125;-82
2022/05/26 10:03:49;;;;;;;1.98;1.00;;;;;;;23.31;38.47;100760.44;5073224;28;20477;-80
2022/05/26 10:06:28;;;;;;;2.70;1.00;;;;;;;23.50;38.59;100753.88;5073565;28;20060;-82
2022/05/26 10:09:07;;;;;;;1.65;1.05;;;;;;;23.35;37.45;100754.47;5074622;28;20048;-82
2022/05/26 10:11:56;;;;;;;4.30;1.23;;;;;;;23.56;37.93;100753.25;5073213;28;20044;-82
2022/05/26 10:14:44;;;;;;;2.10;1.10;;;;;;;23.78;37.54;100752.66;5072517;28;20075;-82
2022/05/26 10:17:22;;;;;;;2.38;1.00;;;;;;;24.08;37.62;100747.63;5074140;28;20048;-82
2022/05/26 10:20:22;;;;;;;3.72;1.20;;;;;;;24.22;38.32;100755.13;5074931;28;20044;-82
2022/05/26 10:23:12;;;;;;;1.75;1.00;;;;;;;24.26;38.28;100753.78;5067602;28;20080;-82
2022/05/26 10:25:50;;;;;;;1.95;1.10;;;;;;;24.07;36.94;100751.38;5074376;28;20064;-82
2022/05/26 10:28:42;;;;;;;1.42;0.95;;;;;;;23.77;38.04;100753.69;5074149;28;20045;-82
2022/05/26 10:31:29;;;;;;;3.38;1.20;;;;;;;24.05;37.38;100754.28;5072277;28;20140;-82
2022/05/26 10:34:31;;;;;;;2.50;1.10;;;;;;;24.18;37.46;100756.50;5072724;28;20044;-81
2022/05/26 10:37:13;;;;;;;3.55;1.13;;;;;;;24.12;37.99;100743.53;5073539;28;20048;-82
2022/05/26 10:39:57;;;;;;;2.83;1.13;;;;;;;24.09;37.20;100735.69;5073646;28;20045;-81
2022/05/26 10:42:28;;;;;;;5.28;1.33;;;;;;;24.38;38.13;100738.81;5073801;28;20417;-82
2022/05/26 10:45:07;;;;;;;3.72;1.27;;;;;;;24.33;37.55;100752.13;5072023;28;20486;-81
2022/05/26 10:47:41;;;;;;;2.30;1.17;;;;;;;24.16;39.01;100745.75;5073418;28;20114;-82
2022/05/26 10:50:19;;;;;;;3.65;1.20;;;;;;;24.63;38.56;100747.00;5074124;28;20043;-82
2022/05/26 10:53:00;;;;;;;1.90;1.13;;;;;;;24.36;37.98;100734.56;5073027;28;20049;-83
2022/05/26 10:55:38;;;;;;;2.75;1.10;;;;;;;24.31;38.74;100740.50;5071506;28;20498;-81
2022/05/26 10:58:14;;;;;;;4.20;1.20;;;;;;;24.51;38.15;100750.09;5073843;28;20045;-82
2022/05/26 11:00:43;;;;;;;3.50;1.48;;;;;;;24.55;39.59;100739.69;5071709;28;20407;-82
2022/05/26 11:03:14;;;;;;;1.83;1.00;;;;;;;24.26;37.48;100731.97;5073359;28;20421;-82
2022/05/26 11:05:46;;;;;;;3.83;1.20;;;;;;;24.35;36.79;100738.31;5072794;28;20044;-82
2022/05/26 11:08:34;;;;;;;2.72;1.05;;;;;;;24.76;37.21;100730.97;5073565;28;20094;-83
2022/05/26 11:11:07;;;;;;;5.18;1.60;;;;;;;25.02;37.18;100731.63;5072508;28;20071;-83
2022/05/26 11:13:41;;;;;;;;;;;;;;;24.78;37.08;100734.38;5071945;28;20045;-82
2022/05/26 11:19:18;;;;;;;2.08;1.13;;;;;;;24.52;36.81;100743.63;5073166;28;20774;-82
2022/05/26 11:21:46;;;;;;;1.60;0.95;;;;;;;24.49;37.01;100729.44;5069616;28;20037;-80
2022/05/26 11:24:16;;;;;;;3.65;1.08;;;;;;;24.85;36.71;100724.47;5059800;28;20049;-80
2022/05/26 11:26:50;;;;;;;3.75;1.20;;;;;;;24.90;35.91;100735.72;5066724;28;20513;-80
2022/05/26 11:29:25;;;;;;;3.05;1.20;;;;;;;24.92;36.48;100732.81;5073550;28;20090;-81
2022/05/26 11:38:00;;;;;;;3.40;1.05;;;;;;;25.09;36.41;100720.84;4999643;28;20049;-81
2022/05/26 11:40:35;;;;;;;2.58;1.20;;;;;;;25.33;36.90;100718.06;5070980;28;20094;-81
2022/05/26 11:43:07;;;;;;;3.72;1.20;;;;;;;25.43;36.93;100717.84;5072311;28;20463;-80
2022/05/26 11:45:48;;;;;;;1.67;1.10;;;;;;;25.26;36.31;100711.59;5072207;28;20082;-81
2022/05/26 11:48:47;;;;;;;6.10;1.10;;;;;;;24.87;35.70;100719.69;5071325;28;20470;-82
2022/05/26 11:51:31;;;;;;;4.10;1.02;;;;;;;24.77;36.54;100724.47;4994065;28;20077;-80
2022/05/26 11:54:00;;;;;;;2.70;1.30;;;;;;;25.07;37.35;100712.84;5061555;28;20076;-81
2022/05/26 11:56:50;;;;;;;4.57;1.48;;;;;;;25.37;37.96;100718.53;5070857;28;20053;-82
2022/05/26 11:59:47;;;;;;;11.48;2.25;;;;;;;25.33;36.32;100736.31;5071133;28;20136;-81
2022/05/26 12:02:36;;;;;;;4.38;1.10;;;;;;;25.19;38.47;100715.19;5067284;28;20135;-82
2022/05/26 12:05:45;;;;;;;4.45;1.52;;;;;;;25.20;38.33;100703.28;5066272;28;20090;-78
2022/05/26 12:08:30;;;;;;;4.90;1.35;;;;;;;24.82;36.80;100719.38;5051061;28;20472;-81
2022/05/26 12:11:01;;;;;;;4.90;1.20;;;;;;;24.73;37.39;100704.03;5051064;28;20079;-80
2022/05/26 12:13:34;;;;;;;3.40;1.33;;;;;;;24.67;37.35;100693.81;5050248;28;20053;-81
2022/05/26 12:16:19;;;;;;;3.60;1.00;;;;;;;24.93;37.49;100689.00;5051912;28;20049;-78
2022/05/26 12:18:51;;;;;;;3.28;1.33;;;;;;;25.07;37.19;100679.25;5050666;28;20048;-82
2022/05/26 12:21:39;;;;;;;3.72;1.20;;;;;;;24.82;37.25;100681.19;5050773;28;20060;-80
2022/05/26 12:25:00;;;;;;;1.60;1.10;;;;;;;25.23;37.34;100656.50;5052117;28;20052;-82
2022/05/26 12:28:06;;;;;;;3.85;1.50;;;;;;;24.81;37.81;100674.03;5047344;28;20453;-80
2022/05/26 12:31:07;;;;;;;2.93;1.20;;;;;;;24.53;38.30;100665.38;4973539;28;20050;-78
2022/05/26 12:34:12;;;;;;;3.40;1.17;;;;;;;24.88;38.19;100672.28;4973484;28;20154;-78